Time;durP1;ratioP1;P1;durP2;ratioP2;P2;SDS_P1;SDS_P2;PMS_P1;PMS_P2;Temp;Humidity;BMP_temperature;BMP_pressure;BME280_temperature;BME280_humidity;BME280_pressure;Samples;Min_cycle;Max_cycle;Signal;HPM_P1;HPM_P2
2021/06/26 00:02:25;;;;;;;5.00;4.53;;;21.20;1.00;;;;;;5077584;28;20466;-68
2021/06/26 00:04:52;;;;;;;4.90;4.40;;;21.20;1.00;;;;;;5077935;28;20512;-68
2021/06/26 00:07:19;;;;;;;5.27;4.67;;;21.10;1.00;;;;;;5078534;28;20462;-68
2021/06/26 00:09:48;;;;;;;5.10;4.70;;;21.00;1.00;;;;;;5077517;28;20461;-68
2021/06/26 00:12:15;;;;;;;4.47;4.07;;;21.00;1.00;;;;;;5078068;28;20458;-68
2021/06/26 00:14:45;;;;;;;5.57;5.07;;;20.90;1.00;;;;;;5078825;28;20505;-68
2021/06/26 00:17:11;;;;;;;4.93;4.53;;;20.90;1.00;;;;;;5078351;28;20476;-68
2021/06/26 00:19:38;;;;;;;8.30;4.50;;;20.80;1.00;;;;;;5076287;28;20463;-70
2021/06/26 00:22:05;;;;;;;4.80;4.40;;;20.90;3.50;;;;;;5074819;28;20929;-73
2021/06/26 00:24:32;;;;;;;6.53;5.37;;;20.80;21.00;;;;;;5073705;28;20489;-69
2021/06/26 00:27:01;;;;;;;4.90;4.50;;;20.80;35.80;;;;;;5074007;28;20458;-69
2021/06/26 00:29:28;;;;;;;6.40;4.83;;;20.80;51.90;;;;;;5075486;28;20814;-70
2021/06/26 00:31:58;;;;;;;4.90;4.50;;;20.70;85.00;;;;;;5084306;28;20454;-69
2021/06/26 00:34:24;;;;;;;5.20;4.70;;;20.60;99.90;;;;;;5088626;28;20465;-71
2021/06/26 00:36:51;;;;;;;5.63;5.13;;;20.60;99.90;;;;;;5085035;28;20476;-70
2021/06/26 00:39:18;;;;;;;5.20;4.80;;;20.50;99.90;;;;;;5076657;28;20465;-69
2021/06/26 00:41:45;;;;;;;6.90;6.20;;;20.50;99.90;;;;;;5077304;28;20461;-70
2021/06/26 00:44:12;;;;;;;5.50;5.00;;;20.50;99.90;;;;;;5076460;28;20484;-68
2021/06/26 00:46:39;;;;;;;5.70;5.20;;;20.40;99.90;;;;;;5082612;28;20502;-69
2021/06/26 00:49:07;;;;;;;5.37;4.97;;;20.40;99.90;;;;;;5088682;28;20450;-69
2021/06/26 00:51:35;;;;;;;5.73;5.20;;;20.40;99.90;;;;;;5088168;28;20454;-69
2021/06/26 00:54:03;;;;;;;6.53;5.60;;;20.30;99.90;;;;;;5088096;28;20458;-69
2021/06/26 00:56:29;;;;;;;5.90;5.20;;;20.30;99.90;;;;;;5087249;28;20531;-69
2021/06/26 00:58:57;;;;;;;5.70;4.57;;;20.20;99.90;;;;;;5087730;28;20458;-69
2021/06/26 01:01:24;;;;;;;5.67;5.17;;;20.10;99.90;;;;;;5086885;28;20468;-69
2021/06/26 01:03:51;;;;;;;5.07;4.57;;;20.10;99.90;;;;;;5087987;28;20493;-69
2021/06/26 01:06:19;;;;;;;6.80;5.00;;;20.10;1.00;;;;;;5091061;28;20458;-69
2021/06/26 01:08:45;;;;;;;5.10;4.33;;;20.00;1.00;;;;;;5091224;28;20450;-69
2021/06/26 01:11:15;;;;;;;5.93;5.23;;;20.00;1.00;;;;;;5090780;28;20464;-69
2021/06/26 01:13:42;;;;;;;5.20;4.80;;;19.90;1.00;;;;;;5092033;28;20458;-69
2021/06/26 01:16:08;;;;;;;5.70;5.30;;;19.90;1.00;;;;;;5091768;28;20457;-69
2021/06/26 01:18:35;;;;;;;4.93;4.53;;;19.90;1.00;;;;;;5091531;28;20533;-69
2021/06/26 01:21:02;;;;;;;5.53;4.80;;;19.80;1.00;;;;;;5092549;28;20469;-69
2021/06/26 01:23:31;;;;;;;5.43;4.93;;;19.80;1.00;;;;;;5088935;28;20469;-71
2021/06/26 01:25:58;;;;;;;5.70;5.20;;;19.70;1.00;;;;;;5077419;28;20461;-71
2021/06/26 01:28:25;;;;;;;5.70;5.23;;;19.70;99.90;;;;;;5077378;28;20788;-71
2021/06/26 01:30:52;;;;;;;5.93;5.43;;;19.60;99.90;;;;;;5077347;28;20461;-71
2021/06/26 01:33:18;;;;;;;5.20;4.70;;;19.60;99.90;;;;;;5077484;28;20450;-71
2021/06/26 01:35:45;;;;;;;7.17;5.53;;;19.60;99.90;;;;;;5077407;28;20458;-71
2021/06/26 01:38:12;;;;;;;6.60;6.00;;;19.50;99.90;;;;;;5077637;28;20458;-71
2021/06/26 01:40:40;;;;;;;7.60;5.73;;;19.50;99.90;;;;;;5076949;28;20465;-71
2021/06/26 01:43:11;;;;;;;6.20;5.60;;;19.50;1.00;;;;;;5077246;28;20454;-71
2021/06/26 01:45:38;;;;;;;5.93;5.43;;;19.40;1.00;;;;;;5076708;28;20478;-71
2021/06/26 01:48:06;;;;;;;5.13;4.73;;;19.40;1.00;;;;;;5077298;28;20486;-71
2021/06/26 01:50:33;;;;;;;6.30;5.70;;;19.30;1.00;;;;;;5077432;28;20537;-71
2021/06/26 01:53:00;;;;;;;6.67;6.03;;;19.30;1.00;;;;;;5076897;28;20462;-71
2021/06/26 01:55:28;;;;;;;6.50;5.27;;;19.30;1.00;;;;;;5076737;28;20557;-71
2021/06/26 01:57:56;;;;;;;6.77;6.17;;;19.30;1.00;;;;;;5076876;28;20465;-71
2021/06/26 02:00:24;;;;;;;5.73;5.23;;;19.20;99.90;;;;;;5076220;28;20500;-71
2021/06/26 02:02:52;;;;;;;5.40;4.90;;;19.20;99.90;;;;;;5076174;28;20462;-71
2021/06/26 02:05:22;;;;;;;5.50;5.00;;;19.20;99.90;;;;;;5076486;28;20482;-71
2021/06/26 02:07:49;;;;;;;5.83;5.33;;;19.10;1.00;;;;;;5076640;28;20450;-71
2021/06/26 02:10:16;;;;;;;6.00;5.40;;;19.10;1.00;;;;;;5076429;28;20782;-71
2021/06/26 02:12:43;;;;;;;5.30;4.80;;;19.10;1.00;;;;;;5076530;28;20583;-71
2021/06/26 02:15:12;;;;;;;5.97;5.37;;;19.10;1.00;;;;;;5075749;28;20450;-71
2021/06/26 02:17:39;;;;;;;5.83;5.33;;;19.10;1.00;;;;;;5076665;28;20458;-71
2021/06/26 02:20:07;;;;;;;5.50;4.90;;;19.10;1.00;;;;;;5076606;28;20458;-71
2021/06/26 02:22:34;;;;;;;5.33;4.83;;;19.10;1.00;;;;;;5076073;28;20462;-71
2021/06/26 02:25:04;;;;;;;6.53;5.93;;;19.10;37.20;;;;;;5076304;28;20482;-71
2021/06/26 02:27:31;;;;;;;5.37;4.87;;;19.00;99.90;;;;;;5075825;28;20919;-71
2021/06/26 02:30:00;;;;;;;5.40;5.00;;;19.00;99.90;;;;;;5076213;28;20502;-71
2021/06/26 02:32:30;;;;;;;6.03;5.43;;;19.00;1.00;;;;;;5075430;28;20902;-71
2021/06/26 02:34:56;;;;;;;6.20;5.60;;;19.00;1.00;;;;;;5075985;28;20772;-71
2021/06/26 02:37:25;;;;;;;6.10;5.60;;;19.00;1.00;;;;;;5076546;28;20458;-71
2021/06/26 02:39:52;;;;;;;6.53;5.70;;;19.00;1.00;;;;;;5075849;28;20470;-71
2021/06/26 02:42:19;;;;;;;5.50;4.93;;;18.90;1.00;;;;;;5075665;28;20849;-71
2021/06/26 02:44:46;;;;;;;6.20;5.57;;;18.90;1.00;;;;;;5075601;28;20473;-71
2021/06/26 02:47:13;;;;;;;6.60;5.93;;;19.00;99.90;;;;;;5075338;28;20486;-71
2021/06/26 02:49:41;;;;;;;5.50;5.00;;;18.90;99.90;;;;;;5075491;28;20465;-71
2021/06/26 02:52:08;;;;;;;6.50;5.90;;;18.90;1.00;;;;;;5075493;28;20462;-71
2021/06/26 02:54:35;;;;;;;6.00;5.40;;;18.90;1.00;;;;;;5075592;28;20450;-71
2021/06/26 02:57:02;;;;;;;7.00;6.43;;;18.80;1.00;;;;;;5075572;28;20481;-71
2021/06/26 02:59:28;;;;;;;6.70;5.97;;;18.80;61.90;;;;;;5075709;28;20473;-71
2021/06/26 03:01:55;;;;;;;6.97;5.60;;;18.80;99.90;;;;;;5075902;28;20766;-71
2021/06/26 03:04:22;;;;;;;7.40;5.97;;;18.80;99.90;;;;;;5075705;28;20580;-71
2021/06/26 03:06:50;;;;;;;6.53;5.93;;;18.80;1.00;;;;;;5075802;28;20450;-71
2021/06/26 03:09:17;;;;;;;6.77;5.70;;;18.80;1.00;;;;;;5075414;28;20469;-71
2021/06/26 03:11:43;;;;;;;6.30;5.20;;;18.80;1.00;;;;;;5075170;28;20469;-71
2021/06/26 03:14:12;;;;;;;6.97;6.20;;;18.80;1.00;;;;;;5075720;28;20480;-71
2021/06/26 03:16:39;;;;;;;6.40;5.80;;;18.80;19.00;;;;;;5075299;28;20465;-71
2021/06/26 03:19:06;;;;;;;5.80;5.30;;;18.80;99.90;;;;;;5075342;28;20454;-71
2021/06/26 03:21:33;;;;;;;6.03;5.53;;;18.70;99.90;;;;;;5074881;28;20461;-71
2021/06/26 03:24:01;;;;;;;10.70;6.47;;;18.80;1.00;;;;;;5075215;28;20823;-71
2021/06/26 03:26:27;;;;;;;6.87;6.27;;;18.80;1.00;;;;;;5074805;28;20961;-71
2021/06/26 03:28:54;;;;;;;7.20;6.50;;;18.80;1.00;;;;;;5073958;28;20454;-71
2021/06/26 03:31:21;;;;;;;8.10;6.57;;;18.80;1.00;;;;;;5074926;28;20483;-71
2021/06/26 03:33:49;;;;;;;7.57;6.60;;;18.80;1.00;;;;;;5075332;28;20504;-71
2021/06/26 03:36:16;;;;;;;6.90;6.30;;;18.80;1.00;;;;;;5075088;28;20465;-71
2021/06/26 03:38:42;;;;;;;7.80;7.03;;;18.80;1.00;;;;;;5074610;28;20488;-71
2021/06/26 03:41:10;;;;;;;6.90;6.20;;;18.80;1.00;;;;;;5074794;28;20469;-71
2021/06/26 03:43:37;;;;;;;7.90;6.97;;;18.80;1.00;;;;;;5074546;28;20969;-71
2021/06/26 03:46:04;;;;;;;7.00;6.40;;;18.80;1.00;;;;;;5074782;28;20482;-71
2021/06/26 03:48:31;;;;;;;7.30;6.60;;;18.80;1.00;;;;;;5074408;28;20874;-71
2021/06/26 03:50:59;;;;;;;7.20;6.50;;;18.80;1.00;;;;;;5074731;28;20596;-71
2021/06/26 03:53:26;;;;;;;7.07;6.47;;;18.80;1.00;;;;;;5074202;28;20454;-71
2021/06/26 03:55:53;;;;;;;7.50;6.87;;;18.80;1.00;;;;;;5074765;28;20853;-71
2021/06/26 03:58:23;;;;;;;7.50;6.80;;;18.80;1.00;;;;;;5074470;28;20469;-71
2021/06/26 04:00:50;;;;;;;7.20;6.50;;;18.80;1.00;;;;;;5074735;28;20475;-71
2021/06/26 04:03:17;;;;;;;7.00;6.33;;;18.80;1.00;;;;;;5074838;28;20473;-71
2021/06/26 04:05:44;;;;;;;7.70;7.00;;;18.80;1.00;;;;;;5075242;28;20790;-71
2021/06/26 04:08:11;;;;;;;7.77;7.07;;;18.80;1.00;;;;;;5074201;28;20483;-72
2021/06/26 04:10:38;;;;;;;7.13;6.53;;;18.80;4.00;;;;;;5074596;28;20454;-71
2021/06/26 04:13:06;;;;;;;7.43;6.73;;;18.90;91.40;;;;;;5074243;28;20458;-71
2021/06/26 04:15:34;;;;;;;7.60;6.90;;;18.90;45.70;;;;;;5073907;28;20465;-71
2021/06/26 04:18:01;;;;;;;7.67;6.87;;;19.00;27.00;;;;;;5073989;28;20915;-71
2021/06/26 04:20:28;;;;;;;8.30;6.43;;;19.10;5.10;;;;;;5074244;28;20465;-71
2021/06/26 04:22:55;;;;;;;8.70;7.90;;;19.10;1.00;;;;;;5074423;28;20469;-70
2021/06/26 04:25:21;;;;;;;9.63;7.60;;;19.20;1.00;;;;;;5074177;28;20475;-70
2021/06/26 04:27:48;;;;;;;8.57;7.43;;;19.20;1.00;;;;;;5074015;28;20473;-71
2021/06/26 04:30:16;;;;;;;8.17;7.37;;;19.30;1.00;;;;;;5074251;28;20457;-70
2021/06/26 04:32:44;;;;;;;7.87;7.07;;;19.40;1.00;;;;;;5074206;28;20469;-70
2021/06/26 04:35:14;;;;;;;8.20;7.50;;;19.40;1.00;;;;;;5074187;28;20743;-70
2021/06/26 04:37:41;;;;;;;8.03;7.17;;;19.50;1.00;;;;;;5074227;28;20458;-70
2021/06/26 04:40:08;;;;;;;7.27;6.60;;;19.60;99.90;;;;;;5077205;28;20775;-71
2021/06/26 04:42:35;;;;;;;8.10;7.30;;;19.70;6.20;;;;;;5077880;28;20458;-70
2021/06/26 04:45:03;;;;;;;7.90;7.20;;;19.80;13.50;;;;;;5077882;28;20508;-70
2021/06/26 04:47:30;;;;;;;7.87;6.93;;;19.80;99.90;;;;;;5077713;28;20496;-69
2021/06/26 04:49:58;;;;;;;7.00;6.40;;;19.90;99.90;;;;;;5077983;28;20454;-71
2021/06/26 04:52:25;;;;;;;7.53;6.83;;;20.00;99.90;;;;;;5077963;28;20450;-70
2021/06/26 04:54:52;;;;;;;7.67;6.97;;;20.10;1.00;;;;;;5077855;28;20459;-70
2021/06/26 04:57:22;;;;;;;8.00;7.20;;;20.10;1.00;;;;;;5078824;28;20480;-70
2021/06/26 04:59:48;;;;;;;7.50;6.80;;;20.20;99.90;;;;;;5077608;28;20453;-70
2021/06/26 05:02:15;;;;;;;7.77;6.93;;;20.30;99.90;;;;;;5077221;28;20902;-71
2021/06/26 05:04:42;;;;;;;8.50;7.70;;;20.30;1.00;;;;;;5077225;28;20466;-71
2021/06/26 05:07:10;;;;;;;8.03;7.23;;;20.40;99.90;;;;;;5077589;28;20454;-71
2021/06/26 05:09:36;;;;;;;9.97;9.07;;;20.50;1.00;;;;;;5077253;28;20461;-71
2021/06/26 05:12:04;;;;;;;9.10;7.23;;;20.60;1.00;;;;;;5077213;28;20469;-71
2021/06/26 05:14:31;;;;;;;10.10;9.10;;;20.60;1.00;;;;;;5077723;28;20782;-71
2021/06/26 05:16:59;;;;;;;8.87;7.90;;;20.70;99.90;;;;;;5077361;28;20454;-71
2021/06/26 05:19:26;;;;;;;7.10;6.50;;;20.80;1.00;;;;;;5077352;28;20739;-71
2021/06/26 05:21:53;;;;;;;9.17;8.23;;;20.90;1.00;;;;;;5077510;28;20466;-71
2021/06/26 05:24:21;;;;;;;6.13;5.53;;;21.00;99.90;;;;;;5077021;28;20465;-71
2021/06/26 05:26:48;;;;;;;7.00;6.30;;;21.10;1.00;;;;;;5076994;28;20474;-71
2021/06/26 05:29:14;;;;;;;6.23;5.73;;;21.20;99.90;;;;;;5077017;28;20466;-71
2021/06/26 05:31:41;;;;;;;6.07;5.47;;;21.30;99.90;;;;;;5076934;28;20511;-71
2021/06/26 05:34:08;;;;;;;6.90;6.30;;;21.40;71.60;;;;;;5077289;28;20558;-71
2021/06/26 05:36:34;;;;;;;7.10;6.27;;;21.40;22.00;;;;;;5076623;28;20454;-72
2021/06/26 05:39:02;;;;;;;6.77;6.17;;;21.50;4.00;;;;;;5077006;28;20469;-72
2021/06/26 05:41:29;;;;;;;8.43;7.63;;;21.60;44.40;;;;;;5076841;28;20468;-71
2021/06/26 05:43:56;;;;;;;7.10;6.50;;;21.60;65.60;;;;;;5077351;28;20464;-71
2021/06/26 05:46:23;;;;;;;6.70;6.00;;;21.70;1.00;;;;;;5076478;28;20492;-71
2021/06/26 05:48:50;;;;;;;7.00;6.30;;;21.70;1.00;;;;;;5076423;28;20450;-71
2021/06/26 05:51:18;;;;;;;7.40;6.67;;;21.80;1.00;;;;;;5075616;28;20454;-72
2021/06/26 05:53:45;;;;;;;6.87;6.27;;;21.80;1.00;;;;;;5076741;28;20488;-71
2021/06/26 05:56:12;;;;;;;6.60;6.00;;;21.80;1.00;;;;;;5076118;28;20501;-71
2021/06/26 05:58:40;;;;;;;7.57;6.20;;;21.80;1.00;;;;;;5076668;28;20458;-71
2021/06/26 06:01:10;;;;;;;5.90;5.37;;;21.80;1.00;;;;;;5077135;28;20453;-71
2021/06/26 06:03:37;;;;;;;6.60;6.10;;;21.80;1.00;;;;;;5076419;28;20838;-71
2021/06/26 06:06:07;;;;;;;6.30;5.80;;;21.80;1.00;;;;;;5076698;28;20497;-71
2021/06/26 06:08:37;;;;;;;7.50;5.73;;;21.80;1.00;;;;;;5076471;28;20458;-71
2021/06/26 06:11:03;;;;;;;6.30;5.67;;;21.80;1.00;;;;;;5076501;28;20776;-71
2021/06/26 06:13:31;;;;;;;6.43;5.70;;;21.80;1.00;;;;;;5075907;28;20938;-71
2021/06/26 06:15:59;;;;;;;6.83;5.43;;;21.80;1.00;;;;;;5076178;28;20446;-71
2021/06/26 06:18:25;;;;;;;6.10;5.60;;;21.80;1.00;;;;;;5076122;28;20833;-71
2021/06/26 06:20:52;;;;;;;6.13;5.60;;;21.80;1.00;;;;;;5076403;28;20607;-73
2021/06/26 06:23:19;;;;;;;5.70;5.23;;;21.80;1.00;;;;;;5077311;28;20787;-71
2021/06/26 06:25:46;;;;;;;6.10;5.60;;;21.80;1.00;;;;;;5076655;28;20474;-71
2021/06/26 06:28:12;;;;;;;6.03;5.53;;;21.80;1.00;;;;;;5078011;28;20464;-71
2021/06/26 06:30:39;;;;;;;5.70;5.30;;;21.80;1.00;;;;;;5077476;28;20465;-71
2021/06/26 06:33:08;;;;;;;5.30;4.80;;;21.70;1.00;;;;;;5077220;28;20481;-71
2021/06/26 06:35:35;;;;;;;5.70;5.20;;;21.70;1.00;;;;;;5075938;28;20929;-71
2021/06/26 06:38:02;;;;;;;5.63;5.13;;;21.70;1.00;;;;;;5076420;28;20930;-71
2021/06/26 06:40:30;;;;;;;5.53;5.03;;;21.70;1.00;;;;;;5077144;28;20910;-71
2021/06/26 06:42:57;;;;;;;6.40;5.77;;;21.70;1.00;;;;;;5076824;28;20461;-71
2021/06/26 06:45:23;;;;;;;5.50;5.03;;;21.60;1.00;;;;;;5076544;28;20458;-73
2021/06/26 06:47:50;;;;;;;5.37;4.90;;;21.60;1.00;;;;;;5077101;28;20512;-71
2021/06/26 06:50:18;;;;;;;5.60;5.10;;;21.60;1.00;;;;;;5077317;28;20455;-71
2021/06/26 06:52:45;;;;;;;5.60;5.10;;;21.50;1.00;;;;;;5076841;28;20789;-71
2021/06/26 06:55:12;;;;;;;5.83;5.17;;;21.50;1.00;;;;;;5076902;28;20458;-71
2021/06/26 06:57:39;;;;;;;6.27;5.67;;;21.50;1.00;;;;;;5077183;28;20464;-71
2021/06/26 07:00:08;;;;;;;6.03;5.53;;;21.50;1.00;;;;;;5077789;28;20458;-71
2021/06/26 07:02:35;;;;;;;5.50;5.00;;;21.50;1.00;;;;;;5076719;28;20458;-71
2021/06/26 07:05:01;;;;;;;5.80;5.00;;;21.50;1.00;;;;;;5075873;28;20461;-72
2021/06/26 07:07:29;;;;;;;6.40;5.27;;;21.50;1.00;;;;;;5075634;28;20577;-71
2021/06/26 07:09:57;;;;;;;5.53;5.03;;;21.50;1.00;;;;;;5075794;28;20464;-71
2021/06/26 07:12:25;;;;;;;5.83;5.30;;;21.50;1.00;;;;;;5075201;28;20469;-71
2021/06/26 07:14:51;;;;;;;4.93;4.60;;;21.50;1.00;;;;;;5075124;28;20458;-71
2021/06/26 07:17:18;;;;;;;6.80;5.33;;;21.60;1.00;;;;;;5075288;28;20458;-71
2021/06/26 07:19:45;;;;;;;5.13;4.73;;;21.70;1.00;;;;;;5075242;28;20454;-71
2021/06/26 07:22:11;;;;;;;5.43;4.93;;;21.80;1.00;;;;;;5074872;28;20454;-71
2021/06/26 07:24:39;;;;;;;5.60;5.10;;;21.90;1.00;;;;;;5075334;28;20458;-71
2021/06/26 07:27:07;;;;;;;4.40;4.10;;;22.10;1.00;;;;;;5074889;28;20486;-71
2021/06/26 07:29:34;;;;;;;4.90;4.40;;;22.10;99.90;;;;;;5074627;28;20465;-71
2021/06/26 07:32:00;;;;;;;5.10;4.50;;;22.20;99.90;;;;;;5075414;28;20465;-70
2021/06/26 07:34:27;;;;;;;4.30;4.00;;;22.20;99.90;;;;;;5075275;28;20455;-70
2021/06/26 07:36:54;;;;;;;4.70;4.30;;;22.20;99.90;;;;;;5074679;28;20458;-71
2021/06/26 07:39:21;;;;;;;5.40;4.90;;;22.30;99.90;;;;;;5075079;28;20454;-71
2021/06/26 07:41:49;;;;;;;5.07;4.67;;;22.30;99.90;;;;;;5075426;28;20458;-71
2021/06/26 07:44:17;;;;;;;5.37;4.80;;;22.40;99.90;;;;;;5074843;28;20515;-70
2021/06/26 07:46:44;;;;;;;4.97;4.57;;;22.40;99.90;;;;;;5075741;28;20537;-70
2021/06/26 07:49:11;;;;;;;5.00;4.60;;;22.40;99.90;;;;;;5076213;28;20461;-71
2021/06/26 07:51:38;;;;;;;5.27;4.77;;;22.40;99.90;;;;;;5077013;28;20458;-71
2021/06/26 07:54:05;;;;;;;5.30;4.80;;;22.50;55.60;;;;;;5075580;28;20469;-71
2021/06/26 07:56:32;;;;;;;4.50;4.20;;;22.50;15.10;;;;;;5075074;28;20464;-71
2021/06/26 07:59:00;;;;;;;5.20;4.40;;;22.50;18.30;;;;;;5074899;28;20541;-71
2021/06/26 08:01:27;;;;;;;5.30;4.80;;;22.50;4.60;;;;;;5074982;28;20547;-70
2021/06/26 08:03:54;;;;;;;5.53;5.03;;;22.60;1.00;;;;;;5075103;28;20972;-70
2021/06/26 08:06:21;;;;;;;5.47;4.90;;;22.70;1.00;;;;;;5075071;28;20778;-70
2021/06/26 08:08:47;;;;;;;5.60;5.10;;;22.80;1.00;;;;;;5074916;28;20458;-70
2021/06/26 08:11:14;;;;;;;4.77;4.37;;;22.90;1.00;;;;;;5075056;28;20803;-70
2021/06/26 08:13:41;;;;;;;6.07;4.93;;;23.00;1.00;;;;;;5075230;28;20458;-71
2021/06/26 08:16:09;;;;;;;5.30;4.90;;;23.10;1.00;;;;;;5075795;28;20466;-71
2021/06/26 08:18:36;;;;;;;4.93;4.47;;;23.20;1.00;;;;;;5076089;28;20458;-71
2021/06/26 08:21:03;;;;;;;4.23;3.93;;;23.30;1.00;;;;;;5074537;28;20544;-71
2021/06/26 08:23:29;;;;;;;5.27;4.77;;;23.40;1.00;;;;;;5074775;28;20466;-70
2021/06/26 08:25:56;;;;;;;4.20;3.83;;;23.60;1.00;;;;;;5074741;28;20465;-70
2021/06/26 08:28:23;;;;;;;4.57;4.27;;;23.80;1.00;;;;;;5074928;28;20472;-71
2021/06/26 08:30:49;;;;;;;5.63;5.23;;;24.00;1.00;;;;;;5075087;28;20941;-71
2021/06/26 08:33:18;;;;;;;4.50;4.20;;;24.10;1.00;;;;;;5075448;28;20454;-70
2021/06/26 08:35:44;;;;;;;4.47;4.17;;;24.40;1.00;;;;;;5076158;28;20809;-71
2021/06/26 08:38:11;;;;;;;4.60;4.20;;;24.60;1.00;;;;;;5075494;28;20463;-71
2021/06/26 08:40:38;;;;;;;6.43;4.33;;;24.80;1.00;;;;;;5074815;28;20882;-71
2021/06/26 08:43:05;;;;;;;4.23;3.73;;;24.90;1.00;;;;;;5074678;28;20787;-71
2021/06/26 08:45:31;;;;;;;4.70;4.27;;;24.90;1.00;;;;;;5074618;28;20482;-71
2021/06/26 08:47:58;;;;;;;4.27;3.87;;;25.00;1.00;;;;;;5074323;28;20486;-70
2021/06/26 08:50:28;;;;;;;4.83;4.30;;;25.00;1.00;;;;;;5074422;28;20938;-70
2021/06/26 08:52:55;;;;;;;4.57;4.17;;;25.00;1.00;;;;;;5074317;28;20458;-70
2021/06/26 08:55:23;;;;;;;4.60;4.20;;;25.00;1.00;;;;;;5074544;28;20458;-71
2021/06/26 08:57:50;;;;;;;4.40;4.10;;;25.00;1.00;;;;;;5075413;28;20819;-71
2021/06/26 09:00:19;;;;;;;5.10;4.70;;;24.90;1.00;;;;;;5075011;28;20484;-70
2021/06/26 09:02:46;;;;;;;4.67;4.27;;;24.80;1.00;;;;;;5074720;28;20458;-71
2021/06/26 09:05:26;;;;;;;4.47;4.17;;;24.80;1.00;;;;;;5074511;28;20460;-71
2021/06/26 09:07:53;;;;;;;4.13;3.83;;;24.80;1.00;;;;;;5074070;28;20462;-71
2021/06/26 09:10:25;;;;;;;4.50;4.20;;;24.80;1.00;;;;;;5074785;28;20883;-71
2021/06/26 09:12:52;;;;;;;5.40;4.90;;;24.80;1.00;;;;;;5073868;28;20438;-71
2021/06/26 09:15:24;;;;;;;4.27;3.87;;;24.90;1.00;;;;;;5074014;28;20458;-71
2021/06/26 09:17:51;;;;;;;4.90;4.50;;;24.90;1.00;;;;;;5074375;28;20450;-71
2021/06/26 09:20:20;;;;;;;4.63;4.23;;;25.00;1.00;;;;;;5073940;28;20827;-71
2021/06/26 09:22:51;;;;;;;4.47;4.00;;;25.00;1.00;;;;;;5073732;28;20458;-71
2021/06/26 09:25:25;;;;;;;4.50;4.20;;;25.10;1.00;;;;;;5073950;28;20464;-71
2021/06/26 09:27:52;;;;;;;4.77;4.37;;;25.00;1.00;;;;;;5077544;28;20551;-70
2021/06/26 09:30:31;;;;;;;5.20;4.73;;;25.00;1.00;;;;;;5077024;28;20926;-71
2021/06/26 09:33:12;;;;;;;4.97;4.60;;;25.00;1.00;;;;;;5077722;28;20446;-72
2021/06/26 09:35:39;;;;;;;4.90;4.50;;;25.00;1.00;;;;;;5078168;28;20583;-71
2021/06/26 09:38:10;;;;;;;4.37;4.03;;;25.10;1.00;;;;;;5077757;28;20484;-70
2021/06/26 09:40:40;;;;;;;4.50;4.10;;;25.30;1.00;;;;;;5078449;28;20435;-70
2021/06/26 09:43:08;;;;;;;4.90;4.13;;;25.40;1.00;;;;;;5077318;28;20485;-70
2021/06/26 09:45:35;;;;;;;7.43;4.63;;;25.60;1.00;;;;;;5077364;28;20466;-71
2021/06/26 09:48:07;;;;;;;4.70;4.27;;;25.60;1.00;;;;;;5077248;28;20490;-70
2021/06/26 09:50:38;;;;;;;5.07;4.67;;;25.60;1.00;;;;;;5077142;28;20450;-70
2021/06/26 09:53:06;;;;;;;3.83;3.63;;;25.60;1.00;;;;;;5077348;28;20446;-71
2021/06/26 09:55:36;;;;;;;5.80;4.50;;;25.60;1.00;;;;;;5077295;28;20459;-72
2021/06/26 09:58:09;;;;;;;4.97;4.57;;;25.50;1.00;;;;;;5076717;28;20461;-71
2021/06/26 10:00:37;;;;;;;4.60;4.20;;;25.40;1.00;;;;;;5076943;28;20451;-70
2021/06/26 10:03:04;;;;;;;11.60;4.00;;;25.20;1.00;;;;;;5076597;28;21012;-70
2021/06/26 10:05:34;;;;;;;5.43;4.93;;;25.10;1.00;;;;;;5077627;28;20855;-71
2021/06/26 10:08:04;;;;;;;4.70;4.10;;;25.20;1.00;;;;;;5077171;28;20482;-71
2021/06/26 10:10:35;;;;;;;5.60;3.93;;;25.30;1.00;;;;;;5077072;28;20458;-70
2021/06/26 10:13:03;;;;;;;4.27;3.90;;;25.30;1.00;;;;;;5078724;28;20899;-70
2021/06/26 10:15:32;;;;;;;4.60;4.20;;;25.40;1.00;;;;;;5077154;28;20784;-70
2021/06/26 10:17:59;;;;;;;7.57;5.13;;;25.50;1.00;;;;;;5076469;28;20545;-71
2021/06/26 10:20:27;;;;;;;4.77;4.30;;;25.60;1.00;;;;;;5076760;28;20459;-71
2021/06/26 10:22:56;;;;;;;5.50;5.00;;;25.60;1.00;;;;;;5077084;28;20458;-71
2021/06/26 10:25:29;;;;;;;6.17;5.10;;;25.60;1.00;;;;;;5076336;28;20465;-71
2021/06/26 10:28:04;;;;;;;4.40;4.00;;;25.60;1.00;;;;;;5077831;28;20487;-71
2021/06/26 10:30:31;;;;;;;4.87;3.93;;;25.60;1.00;;;;;;5076987;28;20434;-72
2021/06/26 10:32:59;;;;;;;3.93;3.63;;;25.60;1.00;;;;;;5077467;28;20450;-71
2021/06/26 10:35:28;;;;;;;5.00;4.03;;;25.60;1.00;;;;;;5077614;28;20454;-71
2021/06/26 10:38:04;;;;;;;4.07;3.77;;;25.60;1.00;;;;;;5076762;28;20899;-71
2021/06/26 10:40:39;;;;;;;4.60;4.20;;;25.50;1.00;;;;;;5076236;28;20918;-72
2021/06/26 10:43:26;;;;;;;4.10;3.80;;;25.60;1.00;;;;;;5076716;28;20493;-71
2021/06/26 10:46:05;;;;;;;8.40;6.70;;;25.60;1.00;;;;;;5075804;28;20458;-71
2021/06/26 10:48:32;;;;;;;4.87;4.37;;;25.60;1.00;;;;;;5035949;28;20510;-71
2021/06/26 10:50:59;;;;;;;4.00;3.70;;;25.60;1.00;;;;;;5036454;28;20468;-71
2021/06/26 10:53:32;;;;;;;4.53;4.13;;;25.60;1.00;;;;;;5036274;28;20460;-71
2021/06/26 10:56:01;;;;;;;4.43;4.03;;;25.60;1.00;;;;;;5036286;28;20444;-71
2021/06/26 10:58:30;;;;;;;5.40;3.63;;;25.60;1.00;;;;;;5036409;28;20469;-71
2021/06/26 11:00:58;;;;;;;7.57;5.47;;;25.60;1.00;;;;;;5036908;28;20460;-71
2021/06/26 11:03:30;;;;;;;3.37;3.10;;;25.60;1.00;;;;;;5036373;28;20456;-71
2021/06/26 11:05:58;;;;;;;7.20;2.80;;;25.60;1.00;;;;;;5036577;28;20755;-71
2021/06/26 11:08:26;;;;;;;3.10;2.53;;;25.60;1.00;;;;;;5042320;28;20511;-68
2021/06/26 11:10:54;;;;;;;2.87;2.40;;;25.60;1.00;;;;;;5052260;28;20456;-68
2021/06/26 11:13:22;;;;;;;3.00;2.80;;;25.60;1.00;;;;;;5052534;28;20466;-68
2021/06/26 11:15:51;;;;;;;3.00;2.30;;;25.70;1.00;;;;;;5052633;28;20467;-68
2021/06/26 11:18:18;;;;;;;2.97;2.67;;;25.70;1.00;;;;;;5048517;28;20448;-68
2021/06/26 11:20:46;;;;;;;2.53;2.33;;;25.80;1.00;;;;;;5048288;28;20456;-68
2021/06/26 11:23:16;;;;;;;2.70;2.27;;;25.90;1.00;;;;;;5047634;28;20495;-68
2021/06/26 11:25:44;;;;;;;2.83;2.07;;;26.30;1.00;;;;;;5048657;28;20483;-68
2021/06/26 11:28:12;;;;;;;2.30;2.10;;;26.80;1.00;;;;;;5047850;28;20552;-68
2021/06/26 11:30:43;;;;;;;3.10;1.60;;;27.40;1.00;;;;;;5048478;28;20452;-71
2021/06/26 11:33:11;;;;;;;1.60;1.50;;;28.20;1.00;;;;;;5048437;28;20444;-68
2021/06/26 11:35:40;;;;;;;1.40;1.30;;;29.00;1.00;;;;;;5047258;28;20470;-69
2021/06/26 11:38:14;;;;;;;1.70;1.50;;;29.70;1.00;;;;;;5048245;28;20458;-68
2021/06/26 11:40:41;;;;;;;1.77;1.67;;;30.30;1.00;;;;;;5047824;28;20846;-67
2021/06/26 11:43:08;;;;;;;1.90;1.80;;;30.80;1.00;;;;;;5047388;28;20519;-68
2021/06/26 11:45:36;;;;;;;2.50;1.90;;;30.90;1.00;;;;;;5048409;28;20512;-67
2021/06/26 11:48:05;;;;;;;2.03;1.93;;;31.00;1.00;;;;;;5081251;28;20482;-68
2021/06/26 11:50:34;;;;;;;1.97;1.87;;;31.10;1.00;;;;;;5087423;28;20458;-67
2021/06/26 11:53:05;;;;;;;2.70;1.90;;;31.20;1.00;;;;;;5087245;28;20454;-67
2021/06/26 11:55:40;;;;;;;1.90;1.80;;;31.40;1.00;;;;;;5087363;28;20458;-68
2021/06/26 11:58:06;;;;;;;1.87;1.77;;;31.70;1.00;;;;;;5086571;28;20458;-68
2021/06/26 12:00:33;;;;;;;1.83;1.53;;;31.90;1.00;;;;;;5087800;28;20456;-68
2021/06/26 12:03:00;;;;;;;1.67;1.57;;;32.00;1.00;;;;;;5087492;28;20450;-68
2021/06/26 12:05:26;;;;;;;1.60;1.50;;;31.90;1.00;;;;;;5087465;28;20496;-68
2021/06/26 12:08:03;;;;;;;1.80;1.70;;;31.90;1.00;;;;;;5086969;28;20474;-68
2021/06/26 12:10:31;;;;;;;1.70;1.60;;;32.00;1.00;;;;;;5087141;28;20435;-68
2021/06/26 12:12:59;;;;;;;1.50;1.40;;;32.20;1.00;;;;;;5087705;28;20458;-67
2021/06/26 12:15:26;;;;;;;1.80;1.40;;;32.10;1.00;;;;;;5088320;28;20522;-67
2021/06/26 12:18:02;;;;;;;1.57;1.37;;;32.10;1.00;;;;;;5087382;28;20465;-67
2021/06/26 12:20:35;;;;;;;1.60;1.50;;;32.50;1.00;;;;;;5088642;28;20438;-68
2021/06/26 12:23:11;;;;;;;1.60;1.50;;;33.20;1.00;;;;;;5088529;28;20439;-68
2021/06/26 12:25:39;;;;;;;1.87;1.53;;;34.00;1.00;;;;;;5087104;28;20438;-68
2021/06/26 12:28:08;;;;;;;1.60;1.30;;;34.60;1.00;;;;;;5087069;28;20496;-67
2021/06/26 12:30:35;;;;;;;2.63;1.50;;;35.10;1.00;;;;;;5087633;28;20454;-70
2021/06/26 12:33:04;;;;;;;2.43;1.30;;;35.40;1.00;;;;;;5087673;28;20523;-68
2021/06/26 12:35:31;;;;;;;1.37;1.27;;;35.50;1.00;;;;;;5087880;28;20461;-66
2021/06/26 12:37:58;;;;;;;1.50;1.30;;;35.80;1.00;;;;;;5088376;28;20457;-67
2021/06/26 12:40:27;;;;;;;2.23;1.27;;;36.00;1.00;;;;;;5088707;28;20462;-67
2021/06/26 12:42:59;;;;;;;1.30;1.20;;;36.00;1.00;;;;;;5088863;28;20455;-67
2021/06/26 12:45:30;;;;;;;1.70;1.60;;;35.30;1.00;;;;;;5089024;28;20434;-67
2021/06/26 12:48:04;;;;;;;1.30;1.10;;;35.10;1.00;;;;;;5088885;28;20486;-69
2021/06/26 12:50:49;;;;;;;1.50;1.30;;;35.40;1.00;;;;;;5088870;28;20506;-67
2021/06/26 12:53:16;;;;;;;1.40;1.20;;;35.70;1.00;;;;;;5087448;28;20492;-67
2021/06/26 12:55:51;;;;;;;1.57;1.13;;;36.00;1.00;;;;;;5089190;28;20454;-67
2021/06/26 12:58:18;;;;;;;1.87;1.50;;;36.30;1.00;;;;;;5089705;28;20498;-68
2021/06/26 13:00:54;;;;;;;1.50;1.40;;;36.60;1.00;;;;;;5091699;28;20465;-67